»·PEaware :: N107MR CYVR-KSEA

N107MR :: CYVR-KSEA

FLIGHT INFORMATION

Flight Status: Arrived
Operator: Privately registered:
United States
More flights under this callsign
Pilot: Michael R. (16974)
Aircraft: ECLIPSE 500
(EA50)
More flights by this aircraft type
Origin: CYVR Vancouver Intl
Canada
Destination: KSEA Seattle-Tacoma Intl
United States
More flights between these airports :: More routes between these airports
Route: BUHNR MARNR7
File this flight plan on PilotEdge
Remarks:
Altitude:
(Current/Filed)
17,000ft
Speed:
(Current/Filed)
320kts
Departed: 24-Feb-18 12:11 PM
Arrived: 24-Feb-18 12:48 PM
Distance/Time
Traveled:
111nm/0:37
Distance/Time
To Go:
Arrived

Flight Plot

Page will automatically refresh every two minutes.

Flight plan parsing failed; only flown route is shown


Map Options




Map Legend


Flown Route
Filed Route
Departure Airport
Arrival Airport
Navaid (VOR, NDB)
Fix

Horizontal Profiles

Position Reports

Time Latitude Longitude Heading Altitude Ground
Speed
24-Feb-18 12:17 49.189920 -123.206853 99 14ft 0kts
24-Feb-18 12:18 49.189790 -123.205710 99 15ft 42kts
24-Feb-18 12:19 49.183627 -123.155430 99 2117ft 151kts
24-Feb-18 12:20 49.160307 -123.109878 197 5535ft 177kts
24-Feb-18 12:21 49.113991 -123.136875 190 8725ft 188kts
24-Feb-18 12:22 49.071504 -123.148291 193 11239ft 188kts
24-Feb-18 12:23 49.010704 -123.134394 168 14243ft 201kts
24-Feb-18 12:24 48.963053 -123.118479 169 15992ft 223kts
24-Feb-18 12:25 48.883317 -123.094125 170 16976ft 298kts
24-Feb-18 12:26 48.812902 -123.073439 170 16971ft 318kts
24-Feb-18 12:27 48.725632 -123.048180 170 17001ft 326kts
24-Feb-18 12:28 48.633194 -123.021750 170 17019ft 349kts
24-Feb-18 12:29 48.536347 -122.994263 170 17027ft 359kts
24-Feb-18 12:30 48.437809 -122.966113 170 17028ft 362kts
24-Feb-18 12:31 48.338789 -122.938002 170 17035ft 364kts
24-Feb-18 12:32 48.239421 -122.909987 170 17053ft 365kts
24-Feb-18 12:33 48.139154 -122.880794 169 17032ft 371kts
24-Feb-18 12:34 48.038648 -122.844992 150 17030ft 373kts
24-Feb-18 12:35 47.950344 -122.768953 146 16504ft 351kts
24-Feb-18 12:36 47.872986 -122.699754 147 14978ft 323kts
24-Feb-18 12:37 47.799138 -122.633628 148 13419ft 320kts
24-Feb-18 12:38 47.728908 -122.570869 150 11936ft 319kts
24-Feb-18 12:39 47.654057 -122.518196 155 10903ft 291kts
24-Feb-18 12:40 47.588304 -122.473018 157 10179ft 284kts
24-Feb-18 12:41 47.512772 -122.465966 181 9323ft 275kts
24-Feb-18 12:42 47.441961 -122.465544 182 8005ft 247kts
24-Feb-18 12:43 47.374147 -122.465679 183 7025ft 240kts
24-Feb-18 12:44 47.306894 -122.462267 179 6937ft 245kts
24-Feb-18 12:45 47.240099 -122.458038 178 5173ft 236kts
24-Feb-18 12:46 47.175924 -122.456844 178 3277ft 225kts
24-Feb-18 12:47 47.163623 -122.399108 55 2030ft 183kts
24-Feb-18 12:48 47.206532 -122.358018 23 2024ft 187kts
24-Feb-18 12:49 47.251231 -122.330467 25 2018ft 175kts
24-Feb-18 12:50 47.297942 -122.318997 2 2001ft 173kts
24-Feb-18 12:51 47.342280 -122.318665 1 2002ft 160kts
24-Feb-18 12:52 47.384376 -122.318382 1 1462ft 129kts
24-Feb-18 12:53 47.417308 -122.318180 1 837ft 107kts
24-Feb-18 12:54 47.444683 -122.318062 0 352ft 81kts
24-Feb-18 12:55 47.454090 -122.316780 35 357ft 21kts
24-Feb-18 12:56 47.449582 -122.313527 181 390ft 35kts
24-Feb-18 12:57 47.442803 -122.313588 179 364ft 31kts
24-Feb-18 12:58 47.439190 -122.315457 346 348ft 2kts
24-Feb-18 12:59 47.439429 -122.315353 48 348ft 0kts
24-Feb-18 13:00 47.439429 -122.315353 48 348ft 0kts
24-Feb-18 13:01 47.439429 -122.315353 48 348ft 0kts
24-Feb-18 13:02 47.439429 -122.315353 48 348ft 0kts
24-Feb-18 13:03 47.439429 -122.315353 48 348ft 0kts
24-Feb-18 13:04 47.439429 -122.315353 48 348ft 0kts
24-Feb-18 13:05 47.439429 -122.315353 48 348ft 0kts
24-Feb-18 13:06 47.439429 -122.315353 48 348ft 0kts
24-Feb-18 13:07 47.439429 -122.315353 48 348ft 0kts
24-Feb-18 13:08 47.439429 -122.315353 48 348ft 0kts
24-Feb-18 13:09 47.439429 -122.315353 48 348ft 0kts

Navigation Log

Ident Type
Flight plan parsing failed, navigation log unavailable